sensor_id;sensor_type;location;lat;lon;timestamp;temperature;humidity
19389;DHT22;9830;41.876;23.474;2022-11-06T00:01:51;11.90;99.90
19389;DHT22;9830;41.876;23.474;2022-11-06T00:04:17;11.80;99.90
19389;DHT22;9830;41.876;23.474;2022-11-06T00:06:42;11.80;99.90
19389;DHT22;9830;41.876;23.474;2022-11-06T00:09:17;11.80;99.90
19389;DHT22;9830;41.876;23.474;2022-11-06T00:11:44;11.80;99.90
19389;DHT22;9830;41.876;23.474;2022-11-06T00:14:10;11.80;99.90
19389;DHT22;9830;41.876;23.474;2022-11-06T00:16:37;11.80;99.90
19389;DHT22;9830;41.876;23.474;2022-11-06T00:19:03;12.00;99.90
19389;DHT22;9830;41.876;23.474;2022-11-06T00:21:30;12.10;99.90
19389;DHT22;9830;41.876;23.474;2022-11-06T00:23:58;12.10;99.90
19389;DHT22;9830;41.876;23.474;2022-11-06T00:26:25;12.00;99.80
19389;DHT22;9830;41.876;23.474;2022-11-06T00:28:52;12.00;99.90
19389;DHT22;9830;41.876;23.474;2022-11-06T00:31:23;12.00;99.90
19389;DHT22;9830;41.876;23.474;2022-11-06T00:33:49;12.00;99.90
19389;DHT22;9830;41.876;23.474;2022-11-06T00:36:18;11.80;99.50
19389;DHT22;9830;41.876;23.474;2022-11-06T00:38:44;11.60;98.60
19389;DHT22;9830;41.876;23.474;2022-11-06T00:41:12;11.40;99.90
19389;DHT22;9830;41.876;23.474;2022-11-06T00:43:38;11.30;99.90
19389;DHT22;9830;41.876;23.474;2022-11-06T00:46:06;11.10;99.90
19389;DHT22;9830;41.876;23.474;2022-11-06T00:48:33;11.00;99.90
19389;DHT22;9830;41.876;23.474;2022-11-06T00:51:04;10.90;99.90
19389;DHT22;9830;41.876;23.474;2022-11-06T00:53:30;10.90;99.90
19389;DHT22;9830;41.876;23.474;2022-11-06T00:56:08;11.00;99.90
19389;DHT22;9830;41.876;23.474;2022-11-06T00:58:34;11.20;99.90
19389;DHT22;9830;41.876;23.474;2022-11-06T01:01:11;11.50;99.90
19389;DHT22;9830;41.876;23.474;2022-11-06T01:03:38;11.50;99.90
19389;DHT22;9830;41.876;23.474;2022-11-06T01:06:14;11.60;99.50
19389;DHT22;9830;41.876;23.474;2022-11-06T01:08:40;11.60;99.40
19389;DHT22;9830;41.876;23.474;2022-11-06T01:11:19;11.70;99.90
19389;DHT22;9830;41.876;23.474;2022-11-06T01:13:47;11.80;99.90
19389;DHT22;9830;41.876;23.474;2022-11-06T01:16:14;11.80;98.90
19389;DHT22;9830;41.876;23.474;2022-11-06T01:18:42;11.70;99.00
19389;DHT22;9830;41.876;23.474;2022-11-06T01:21:29;11.60;99.30
19389;DHT22;9830;41.876;23.474;2022-11-06T01:24:10;11.40;99.50
19389;DHT22;9830;41.876;23.474;2022-11-06T01:26:36;11.40;99.40
19389;DHT22;9830;41.876;23.474;2022-11-06T01:29:03;11.30;99.00
19389;DHT22;9830;41.876;23.474;2022-11-06T01:31:30;11.20;99.00
19389;DHT22;9830;41.876;23.474;2022-11-06T01:33:57;11.20;98.80
19389;DHT22;9830;41.876;23.474;2022-11-06T01:36:25;11.10;99.10
19389;DHT22;9830;41.876;23.474;2022-11-06T01:38:52;11.20;99.40
19389;DHT22;9830;41.876;23.474;2022-11-06T01:41:21;11.10;99.30
19389;DHT22;9830;41.876;23.474;2022-11-06T01:46:23;11.10;99.70
19389;DHT22;9830;41.876;23.474;2022-11-06T01:49:11;11.10;99.50
19389;DHT22;9830;41.876;23.474;2022-11-06T01:51:42;11.30;99.90
19389;DHT22;9830;41.876;23.474;2022-11-06T01:54:10;11.40;99.90
19389;DHT22;9830;41.876;23.474;2022-11-06T01:56:37;11.70;99.90
19389;DHT22;9830;41.876;23.474;2022-11-06T01:59:05;11.90;99.90
19389;DHT22;9830;41.876;23.474;2022-11-06T02:01:32;12.00;99.90
19389;DHT22;9830;41.876;23.474;2022-11-06T02:04:03;12.00;99.90
19389;DHT22;9830;41.876;23.474;2022-11-06T02:06:31;11.90;99.90
19389;DHT22;9830;41.876;23.474;2022-11-06T02:08:57;12.00;99.70
19389;DHT22;9830;41.876;23.474;2022-11-06T02:11:23;11.90;99.70
19389;DHT22;9830;41.876;23.474;2022-11-06T02:14:03;12.00;99.90
19389;DHT22;9830;41.876;23.474;2022-11-06T02:17:02;12.00;99.90
19389;DHT22;9830;41.876;23.474;2022-11-06T02:25:08;12.00;99.50
19389;DHT22;9830;41.876;23.474;2022-11-06T02:27:37;11.80;98.40
19389;DHT22;9830;41.876;23.474;2022-11-06T02:30:12;11.60;98.70
19389;DHT22;9830;41.876;23.474;2022-11-06T02:32:57;11.50;98.70
19389;DHT22;9830;41.876;23.474;2022-11-06T02:35:50;11.40;98.70
19389;DHT22;9830;41.876;23.474;2022-11-06T02:38:21;11.40;98.70
19389;DHT22;9830;41.876;23.474;2022-11-06T02:40:51;11.40;98.50
19389;DHT22;9830;41.876;23.474;2022-11-06T02:43:21;11.40;98.20
19389;DHT22;9830;41.876;23.474;2022-11-06T02:46:17;11.40;98.50
19389;DHT22;9830;41.876;23.474;2022-11-06T02:48:44;11.50;98.50
19389;DHT22;9830;41.876;23.474;2022-11-06T02:51:14;11.60;97.90
19389;DHT22;9830;41.876;23.474;2022-11-06T02:53:43;11.60;97.40
19389;DHT22;9830;41.876;23.474;2022-11-06T02:56:32;11.70;96.80
19389;DHT22;9830;41.876;23.474;2022-11-06T02:59:14;11.70;95.90
19389;DHT22;9830;41.876;23.474;2022-11-06T03:01:52;11.70;96.80
19389;DHT22;9830;41.876;23.474;2022-11-06T03:04:22;11.80;97.50
19389;DHT22;9830;41.876;23.474;2022-11-06T03:06:53;11.90;97.40
19389;DHT22;9830;41.876;23.474;2022-11-06T03:09:27;11.90;96.70
19389;DHT22;9830;41.876;23.474;2022-11-06T03:12:01;11.90;96.10
19389;DHT22;9830;41.876;23.474;2022-11-06T03:14:40;12.00;96.60
19389;DHT22;9830;41.876;23.474;2022-11-06T03:17:16;11.90;96.20
19389;DHT22;9830;41.876;23.474;2022-11-06T03:19:54;11.90;95.80
19389;DHT22;9830;41.876;23.474;2022-11-06T03:22:40;11.90;95.90
19389;DHT22;9830;41.876;23.474;2022-11-06T03:25:22;11.80;96.00
19389;DHT22;9830;41.876;23.474;2022-11-06T03:28:05;11.80;96.20
19389;DHT22;9830;41.876;23.474;2022-11-06T03:30:37;11.80;96.20
19389;DHT22;9830;41.876;23.474;2022-11-06T03:33:25;11.80;96.70
19389;DHT22;9830;41.876;23.474;2022-11-06T03:36:08;11.80;96.80
19389;DHT22;9830;41.876;23.474;2022-11-06T03:39:03;11.70;96.60
19389;DHT22;9830;41.876;23.474;2022-11-06T03:44:04;11.60;96.40
19389;DHT22;9830;41.876;23.474;2022-11-06T03:46:32;11.70;96.20
19389;DHT22;9830;41.876;23.474;2022-11-06T03:49:05;11.70;96.30
19389;DHT22;9830;41.876;23.474;2022-11-06T03:51:39;11.70;95.80
19389;DHT22;9830;41.876;23.474;2022-11-06T03:54:16;11.70;95.20
19389;DHT22;9830;41.876;23.474;2022-11-06T03:56:53;11.70;95.10
19389;DHT22;9830;41.876;23.474;2022-11-06T03:59:21;11.70;95.30
19389;DHT22;9830;41.876;23.474;2022-11-06T04:01:52;11.70;95.80
19389;DHT22;9830;41.876;23.474;2022-11-06T04:04:26;11.70;95.50
19389;DHT22;9830;41.876;23.474;2022-11-06T04:07:13;11.70;95.30
19389;DHT22;9830;41.876;23.474;2022-11-06T04:09:40;11.50;95.40
19389;DHT22;9830;41.876;23.474;2022-11-06T04:12:27;11.50;95.20
19389;DHT22;9830;41.876;23.474;2022-11-06T04:15:33;11.60;95.00
19389;DHT22;9830;41.876;23.474;2022-11-06T04:18:01;11.60;95.20
19389;DHT22;9830;41.876;23.474;2022-11-06T04:20:36;11.60;95.20
19389;DHT22;9830;41.876;23.474;2022-11-06T04:23:50;11.60;94.80
19389;DHT22;9830;41.876;23.474;2022-11-06T04:37:35;11.50;95.10
19389;DHT22;9830;41.876;23.474;2022-11-06T04:45:36;11.40;95.20
19389;DHT22;9830;41.876;23.474;2022-11-06T04:48:02;11.40;95.00
19389;DHT22;9830;41.876;23.474;2022-11-06T04:50:32;11.50;94.70
19389;DHT22;9830;41.876;23.474;2022-11-06T04:53:01;11.50;94.60
19389;DHT22;9830;41.876;23.474;2022-11-06T04:55:28;11.50;94.60
19389;DHT22;9830;41.876;23.474;2022-11-06T04:57:55;11.60;94.20
19389;DHT22;9830;41.876;23.474;2022-11-06T05:00:21;11.60;94.30
19389;DHT22;9830;41.876;23.474;2022-11-06T05:02:46;11.60;94.30
19389;DHT22;9830;41.876;23.474;2022-11-06T05:05:12;11.50;94.50
19389;DHT22;9830;41.876;23.474;2022-11-06T05:07:38;11.50;94.30
19389;DHT22;9830;41.876;23.474;2022-11-06T05:10:04;11.50;94.40
19389;DHT22;9830;41.876;23.474;2022-11-06T05:12:30;11.50;94.30
19389;DHT22;9830;41.876;23.474;2022-11-06T05:14:55;11.50;94.10
19389;DHT22;9830;41.876;23.474;2022-11-06T05:17:21;11.50;94.30
19389;DHT22;9830;41.876;23.474;2022-11-06T05:19:46;11.50;94.40
19389;DHT22;9830;41.876;23.474;2022-11-06T05:22:12;11.50;94.50
19389;DHT22;9830;41.876;23.474;2022-11-06T05:24:56;11.50;94.40
19389;DHT22;9830;41.876;23.474;2022-11-06T05:27:22;11.50;94.60
19389;DHT22;9830;41.876;23.474;2022-11-06T05:29:48;11.50;94.90
19389;DHT22;9830;41.876;23.474;2022-11-06T05:32:13;11.50;95.40
19389;DHT22;9830;41.876;23.474;2022-11-06T05:34:39;11.40;96.50
19389;DHT22;9830;41.876;23.474;2022-11-06T05:37:06;11.30;98.20
19389;DHT22;9830;41.876;23.474;2022-11-06T05:39:32;11.30;99.70
19389;DHT22;9830;41.876;23.474;2022-11-06T05:41:58;11.20;99.90
19389;DHT22;9830;41.876;23.474;2022-11-06T05:44:23;11.10;99.90
19389;DHT22;9830;41.876;23.474;2022-11-06T05:46:49;10.90;99.90
19389;DHT22;9830;41.876;23.474;2022-11-06T05:49:15;10.90;99.90
19389;DHT22;9830;41.876;23.474;2022-11-06T05:51:41;10.80;99.90
19389;DHT22;9830;41.876;23.474;2022-11-06T05:54:07;10.90;99.90
19389;DHT22;9830;41.876;23.474;2022-11-06T05:56:32;11.00;99.90
19389;DHT22;9830;41.876;23.474;2022-11-06T05:58:58;11.10;99.90
19389;DHT22;9830;41.876;23.474;2022-11-06T06:01:23;11.10;99.90
19389;DHT22;9830;41.876;23.474;2022-11-06T06:03:49;11.20;99.30
19389;DHT22;9830;41.876;23.474;2022-11-06T06:06:15;11.40;98.10
19389;DHT22;9830;41.876;23.474;2022-11-06T06:08:41;11.50;98.00
19389;DHT22;9830;41.876;23.474;2022-11-06T06:11:06;11.50;98.70
19389;DHT22;9830;41.876;23.474;2022-11-06T06:13:34;11.50;98.50
19389;DHT22;9830;41.876;23.474;2022-11-06T06:16:00;11.50;98.40
19389;DHT22;9830;41.876;23.474;2022-11-06T06:18:27;11.40;99.90
19389;DHT22;9830;41.876;23.474;2022-11-06T06:20:53;11.30;99.90
19389;DHT22;9830;41.876;23.474;2022-11-06T06:23:18;11.20;99.90
19389;DHT22;9830;41.876;23.474;2022-11-06T06:25:44;11.10;99.90
19389;DHT22;9830;41.876;23.474;2022-11-06T06:28:10;10.90;99.90
19389;DHT22;9830;41.876;23.474;2022-11-06T06:30:35;10.70;99.90
19389;DHT22;9830;41.876;23.474;2022-11-06T06:33:05;10.60;99.90
19389;DHT22;9830;41.876;23.474;2022-11-06T06:35:31;10.40;99.90
19389;DHT22;9830;41.876;23.474;2022-11-06T06:37:57;10.40;99.90
19389;DHT22;9830;41.876;23.474;2022-11-06T06:40:23;10.40;99.90
19389;DHT22;9830;41.876;23.474;2022-11-06T06:42:50;10.30;99.90
19389;DHT22;9830;41.876;23.474;2022-11-06T06:45:16;10.30;99.90
19389;DHT22;9830;41.876;23.474;2022-11-06T06:47:42;10.30;99.90
19389;DHT22;9830;41.876;23.474;2022-11-06T06:50:08;10.40;99.90
19389;DHT22;9830;41.876;23.474;2022-11-06T06:52:33;10.40;99.90
19389;DHT22;9830;41.876;23.474;2022-11-06T06:54:59;10.30;99.90
19389;DHT22;9830;41.876;23.474;2022-11-06T06:57:25;10.20;99.90
19389;DHT22;9830;41.876;23.474;2022-11-06T06:59:50;10.20;99.90
19389;DHT22;9830;41.876;23.474;2022-11-06T07:02:16;10.10;99.90
19389;DHT22;9830;41.876;23.474;2022-11-06T07:04:41;10.00;99.90
19389;DHT22;9830;41.876;23.474;2022-11-06T07:07:07;9.90;99.90
19389;DHT22;9830;41.876;23.474;2022-11-06T07:09:33;9.90;99.90
19389;DHT22;9830;41.876;23.474;2022-11-06T07:11:58;9.90;99.90
19389;DHT22;9830;41.876;23.474;2022-11-06T07:14:24;9.90;99.90
19389;DHT22;9830;41.876;23.474;2022-11-06T07:16:50;9.90;99.90
19389;DHT22;9830;41.876;23.474;2022-11-06T07:19:16;9.80;99.90
19389;DHT22;9830;41.876;23.474;2022-11-06T07:21:42;9.80;99.90
19389;DHT22;9830;41.876;23.474;2022-11-06T07:24:08;9.80;99.90
19389;DHT22;9830;41.876;23.474;2022-11-06T07:26:33;9.90;99.90
19389;DHT22;9830;41.876;23.474;2022-11-06T07:28:59;9.90;99.90
19389;DHT22;9830;41.876;23.474;2022-11-06T07:31:25;9.90;99.90
19389;DHT22;9830;41.876;23.474;2022-11-06T07:33:50;9.90;99.90
19389;DHT22;9830;41.876;23.474;2022-11-06T07:36:16;9.90;99.90
19389;DHT22;9830;41.876;23.474;2022-11-06T07:38:42;10.00;99.90
19389;DHT22;9830;41.876;23.474;2022-11-06T07:41:10;10.00;99.90
19389;DHT22;9830;41.876;23.474;2022-11-06T07:43:37;10.10;99.90
19389;DHT22;9830;41.876;23.474;2022-11-06T07:46:06;10.20;99.90
19389;DHT22;9830;41.876;23.474;2022-11-06T07:48:32;10.30;99.90
19389;DHT22;9830;41.876;23.474;2022-11-06T07:51:01;10.10;99.90
19389;DHT22;9830;41.876;23.474;2022-11-06T07:53:28;10.10;99.90
19389;DHT22;9830;41.876;23.474;2022-11-06T07:55:55;10.10;99.90
19389;DHT22;9830;41.876;23.474;2022-11-06T07:58:22;10.10;99.90
19389;DHT22;9830;41.876;23.474;2022-11-06T08:00:53;10.20;99.90
19389;DHT22;9830;41.876;23.474;2022-11-06T08:03:20;10.20;99.90
19389;DHT22;9830;41.876;23.474;2022-11-06T08:05:46;10.30;99.90
19389;DHT22;9830;41.876;23.474;2022-11-06T08:08:12;10.30;99.90
19389;DHT22;9830;41.876;23.474;2022-11-06T08:10:38;10.40;99.90
19389;DHT22;9830;41.876;23.474;2022-11-06T08:13:12;10.40;99.90
19389;DHT22;9830;41.876;23.474;2022-11-06T08:15:39;10.50;99.90
19389;DHT22;9830;41.876;23.474;2022-11-06T08:18:06;10.40;99.90
19389;DHT22;9830;41.876;23.474;2022-11-06T08:20:33;10.50;99.90
19389;DHT22;9830;41.876;23.474;2022-11-06T08:23:04;10.40;99.90
19389;DHT22;9830;41.876;23.474;2022-11-06T08:25:30;10.50;99.90
19389;DHT22;9830;41.876;23.474;2022-11-06T08:27:57;10.40;99.90
19389;DHT22;9830;41.876;23.474;2022-11-06T08:30:24;10.40;99.90
19389;DHT22;9830;41.876;23.474;2022-11-06T08:32:50;10.40;99.90
19389;DHT22;9830;41.876;23.474;2022-11-06T08:35:16;10.30;99.90
19389;DHT22;9830;41.876;23.474;2022-11-06T08:37:43;10.40;99.90
19389;DHT22;9830;41.876;23.474;2022-11-06T08:40:09;10.50;99.90
19389;DHT22;9830;41.876;23.474;2022-11-06T08:42:35;10.50;99.90
19389;DHT22;9830;41.876;23.474;2022-11-06T08:45:01;10.60;99.90
19389;DHT22;9830;41.876;23.474;2022-11-06T08:47:26;10.70;99.90
19389;DHT22;9830;41.876;23.474;2022-11-06T08:49:52;10.80;99.90
19389;DHT22;9830;41.876;23.474;2022-11-06T08:52:18;11.00;99.90
19389;DHT22;9830;41.876;23.474;2022-11-06T08:54:43;11.20;99.90
19389;DHT22;9830;41.876;23.474;2022-11-06T08:57:09;11.40;99.90
19389;DHT22;9830;41.876;23.474;2022-11-06T08:59:34;11.40;99.90
19389;DHT22;9830;41.876;23.474;2022-11-06T09:02:00;11.50;99.90
19389;DHT22;9830;41.876;23.474;2022-11-06T09:04:26;11.60;99.90
19389;DHT22;9830;41.876;23.474;2022-11-06T09:06:52;11.80;99.90
19389;DHT22;9830;41.876;23.474;2022-11-06T09:09:18;11.90;99.90
19389;DHT22;9830;41.876;23.474;2022-11-06T09:11:43;11.90;99.90
19389;DHT22;9830;41.876;23.474;2022-11-06T09:14:09;11.90;99.90
19389;DHT22;9830;41.876;23.474;2022-11-06T09:16:35;11.90;99.90
19389;DHT22;9830;41.876;23.474;2022-11-06T09:19:00;11.80;99.90
19389;DHT22;9830;41.876;23.474;2022-11-06T09:21:26;11.90;99.90
19389;DHT22;9830;41.876;23.474;2022-11-06T09:23:52;11.90;99.90
19389;DHT22;9830;41.876;23.474;2022-11-06T09:26:17;11.90;99.90
19389;DHT22;9830;41.876;23.474;2022-11-06T09:28:43;11.80;99.90
19389;DHT22;9830;41.876;23.474;2022-11-06T09:31:09;11.90;99.90
19389;DHT22;9830;41.876;23.474;2022-11-06T09:33:35;11.90;99.90
19389;DHT22;9830;41.876;23.474;2022-11-06T09:36:04;11.90;99.90
19389;DHT22;9830;41.876;23.474;2022-11-06T09:38:30;12.00;99.90
19389;DHT22;9830;41.876;23.474;2022-11-06T09:40:58;12.00;99.90
19389;DHT22;9830;41.876;23.474;2022-11-06T09:46:25;12.10;99.90
19389;DHT22;9830;41.876;23.474;2022-11-06T09:49:04;12.20;99.90
19389;DHT22;9830;41.876;23.474;2022-11-06T09:51:37;12.20;99.90
19389;DHT22;9830;41.876;23.474;2022-11-06T09:54:27;12.10;99.90
19389;DHT22;9830;41.876;23.474;2022-11-06T09:57:08;12.20;99.90
19389;DHT22;9830;41.876;23.474;2022-11-06T09:59:36;12.20;99.90
19389;DHT22;9830;41.876;23.474;2022-11-06T10:02:28;12.20;99.90
19389;DHT22;9830;41.876;23.474;2022-11-06T10:05:16;12.20;99.90
19389;DHT22;9830;41.876;23.474;2022-11-06T10:07:43;12.20;99.90
19389;DHT22;9830;41.876;23.474;2022-11-06T10:10:17;12.20;99.90
19389;DHT22;9830;41.876;23.474;2022-11-06T10:13:13;12.20;99.90
19389;DHT22;9830;41.876;23.474;2022-11-06T10:15:44;12.20;99.90
19389;DHT22;9830;41.876;23.474;2022-11-06T10:18:24;12.20;99.90
19389;DHT22;9830;41.876;23.474;2022-11-06T10:20:56;12.20;99.90
19389;DHT22;9830;41.876;23.474;2022-11-06T10:23:45;12.10;99.90
19389;DHT22;9830;41.876;23.474;2022-11-06T10:26:36;12.10;99.90
19389;DHT22;9830;41.876;23.474;2022-11-06T10:29:34;12.10;99.90
19389;DHT22;9830;41.876;23.474;2022-11-06T10:32:28;12.30;99.90
19389;DHT22;9830;41.876;23.474;2022-11-06T10:35:33;12.40;99.90
19389;DHT22;9830;41.876;23.474;2022-11-06T10:40:36;12.40;99.90
19389;DHT22;9830;41.876;23.474;2022-11-06T10:43:20;12.40;99.90
19389;DHT22;9830;41.876;23.474;2022-11-06T10:45:55;12.40;99.90
19389;DHT22;9830;41.876;23.474;2022-11-06T10:48:32;12.30;99.90
19389;DHT22;9830;41.876;23.474;2022-11-06T10:56:45;12.20;99.90
19389;DHT22;9830;41.876;23.474;2022-11-06T10:59:13;12.30;99.90
19389;DHT22;9830;41.876;23.474;2022-11-06T11:01:40;12.40;99.90
19389;DHT22;9830;41.876;23.474;2022-11-06T11:04:06;12.30;99.90
19389;DHT22;9830;41.876;23.474;2022-11-06T11:06:32;12.30;99.90
19389;DHT22;9830;41.876;23.474;2022-11-06T11:08:57;12.30;99.90
19389;DHT22;9830;41.876;23.474;2022-11-06T11:11:25;12.30;99.90
19389;DHT22;9830;41.876;23.474;2022-11-06T11:16:31;12.30;99.90
19389;DHT22;9830;41.876;23.474;2022-11-06T11:21:58;12.20;99.90
19389;DHT22;9830;41.876;23.474;2022-11-06T11:24:25;12.10;99.90
19389;DHT22;9830;41.876;23.474;2022-11-06T11:27:01;12.10;99.90
19389;DHT22;9830;41.876;23.474;2022-11-06T11:29:40;12.10;99.90
19389;DHT22;9830;41.876;23.474;2022-11-06T11:32:07;12.20;99.90
19389;DHT22;9830;41.876;23.474;2022-11-06T11:34:35;12.20;99.90
19389;DHT22;9830;41.876;23.474;2022-11-06T11:37:04;12.20;99.90
19389;DHT22;9830;41.876;23.474;2022-11-06T11:44:43;12.20;99.90
19389;DHT22;9830;41.876;23.474;2022-11-06T11:47:23;12.30;99.90
19389;DHT22;9830;41.876;23.474;2022-11-06T11:49:49;12.30;99.90
19389;DHT22;9830;41.876;23.474;2022-11-06T11:52:19;12.30;99.90
19389;DHT22;9830;41.876;23.474;2022-11-06T11:54:50;12.20;99.90
19389;DHT22;9830;41.876;23.474;2022-11-06T11:57:22;12.20;99.90
19389;DHT22;9830;41.876;23.474;2022-11-06T11:59:58;12.20;99.90
19389;DHT22;9830;41.876;23.474;2022-11-06T12:02:33;12.10;99.90
19389;DHT22;9830;41.876;23.474;2022-11-06T12:05:02;12.00;99.90
19389;DHT22;9830;41.876;23.474;2022-11-06T12:07:32;11.90;99.90
19389;DHT22;9830;41.876;23.474;2022-11-06T12:10:02;11.70;99.90
19389;DHT22;9830;41.876;23.474;2022-11-06T12:12:30;11.70;99.90
19389;DHT22;9830;41.876;23.474;2022-11-06T12:17:59;11.70;99.90
19389;DHT22;9830;41.876;23.474;2022-11-06T12:21:03;11.60;99.90
19389;DHT22;9830;41.876;23.474;2022-11-06T12:23:40;11.80;99.90
19389;DHT22;9830;41.876;23.474;2022-11-06T12:28:39;11.60;99.90
19389;DHT22;9830;41.876;23.474;2022-11-06T12:31:22;11.60;99.90
19389;DHT22;9830;41.876;23.474;2022-11-06T12:33:51;11.40;99.90
19389;DHT22;9830;41.876;23.474;2022-11-06T12:36:24;11.50;99.90
19389;DHT22;9830;41.876;23.474;2022-11-06T12:38:56;11.50;99.90
19389;DHT22;9830;41.876;23.474;2022-11-06T12:41:30;11.40;99.90
19389;DHT22;9830;41.876;23.474;2022-11-06T12:43:58;11.40;99.90
19389;DHT22;9830;41.876;23.474;2022-11-06T13:01:02;11.20;99.90
19389;DHT22;9830;41.876;23.474;2022-11-06T13:09:03;11.10;99.90
19389;DHT22;9830;41.876;23.474;2022-11-06T13:11:51;11.10;99.90
19389;DHT22;9830;41.876;23.474;2022-11-06T13:17:27;11.00;99.90
19389;DHT22;9830;41.876;23.474;2022-11-06T13:20:07;11.10;99.90
19389;DHT22;9830;41.876;23.474;2022-11-06T13:25:23;11.10;99.90
19389;DHT22;9830;41.876;23.474;2022-11-06T13:28:23;11.20;99.90
19389;DHT22;9830;41.876;23.474;2022-11-06T13:30:52;11.30;99.90
19389;DHT22;9830;41.876;23.474;2022-11-06T13:33:26;11.40;99.90
19389;DHT22;9830;41.876;23.474;2022-11-06T13:35:53;11.40;99.90
19389;DHT22;9830;41.876;23.474;2022-11-06T13:38:32;11.50;99.90
19389;DHT22;9830;41.876;23.474;2022-11-06T13:41:04;11.50;99.90
19389;DHT22;9830;41.876;23.474;2022-11-06T13:43:40;11.70;99.90
19389;DHT22;9830;41.876;23.474;2022-11-06T13:49:03;11.80;99.90
19389;DHT22;9830;41.876;23.474;2022-11-06T13:57:17;11.80;99.90
19389;DHT22;9830;41.876;23.474;2022-11-06T14:05:19;11.60;99.90
19389;DHT22;9830;41.876;23.474;2022-11-06T14:07:49;11.60;99.90
19389;DHT22;9830;41.876;23.474;2022-11-06T14:10:22;11.50;99.90
19389;DHT22;9830;41.876;23.474;2022-11-06T14:12:48;11.40;99.90
19389;DHT22;9830;41.876;23.474;2022-11-06T14:15:30;11.40;99.90
19389;DHT22;9830;41.876;23.474;2022-11-06T14:17:59;11.40;99.90
19389;DHT22;9830;41.876;23.474;2022-11-06T14:20:32;11.40;99.90
19389;DHT22;9830;41.876;23.474;2022-11-06T14:26:11;11.40;99.90
19389;DHT22;9830;41.876;23.474;2022-11-06T14:28:39;11.30;99.90
19389;DHT22;9830;41.876;23.474;2022-11-06T14:31:06;11.40;99.90
19389;DHT22;9830;41.876;23.474;2022-11-06T14:38:48;11.10;99.90
19389;DHT22;9830;41.876;23.474;2022-11-06T14:44:05;11.20;99.90
19389;DHT22;9830;41.876;23.474;2022-11-06T14:46:32;11.10;99.90
19389;DHT22;9830;41.876;23.474;2022-11-06T14:52:13;11.10;99.90
19389;DHT22;9830;41.876;23.474;2022-11-06T14:57:34;11.10;99.90
19389;DHT22;9830;41.876;23.474;2022-11-06T15:00:00;11.10;99.90
19389;DHT22;9830;41.876;23.474;2022-11-06T15:02:28;11.00;99.90
19389;DHT22;9830;41.876;23.474;2022-11-06T15:05:04;11.00;99.90
19389;DHT22;9830;41.876;23.474;2022-11-06T15:07:55;10.90;99.90
19389;DHT22;9830;41.876;23.474;2022-11-06T15:15:45;10.90;99.90
19389;DHT22;9830;41.876;23.474;2022-11-06T15:18:16;11.00;99.90
19389;DHT22;9830;41.876;23.474;2022-11-06T15:20:53;11.20;99.90
19389;DHT22;9830;41.876;23.474;2022-11-06T15:23:40;11.30;99.90
19389;DHT22;9830;41.876;23.474;2022-11-06T15:27:07;11.20;99.90
19389;DHT22;9830;41.876;23.474;2022-11-06T15:29:17;11.20;99.90
19389;DHT22;9830;41.876;23.474;2022-11-06T15:31:48;11.10;99.90
19389;DHT22;9830;41.876;23.474;2022-11-06T15:34:26;10.90;99.90
19389;DHT22;9830;41.876;23.474;2022-11-06T15:37:08;10.80;99.90
19389;DHT22;9830;41.876;23.474;2022-11-06T15:42:13;10.60;99.90
19389;DHT22;9830;41.876;23.474;2022-11-06T15:44:40;10.50;99.90
19389;DHT22;9830;41.876;23.474;2022-11-06T15:47:24;10.50;99.90
19389;DHT22;9830;41.876;23.474;2022-11-06T15:50:13;10.40;99.90
19389;DHT22;9830;41.876;23.474;2022-11-06T15:52:40;10.50;99.90
19389;DHT22;9830;41.876;23.474;2022-11-06T15:55:33;10.50;99.90
19389;DHT22;9830;41.876;23.474;2022-11-06T16:00:53;10.60;99.90
19389;DHT22;9830;41.876;23.474;2022-11-06T16:03:30;10.50;99.90
19389;DHT22;9830;41.876;23.474;2022-11-06T16:06:00;10.30;99.90
19389;DHT22;9830;41.876;23.474;2022-11-06T16:08:28;10.20;99.90
19389;DHT22;9830;41.876;23.474;2022-11-06T16:10:55;10.10;99.90
19389;DHT22;9830;41.876;23.474;2022-11-06T16:13:23;10.00;99.90
19389;DHT22;9830;41.876;23.474;2022-11-06T16:18:42;10.00;99.90
19389;DHT22;9830;41.876;23.474;2022-11-06T16:21:21;9.90;99.90
19389;DHT22;9830;41.876;23.474;2022-11-06T16:23:54;9.90;99.90
19389;DHT22;9830;41.876;23.474;2022-11-06T16:26:38;10.00;99.90
19389;DHT22;9830;41.876;23.474;2022-11-06T16:29:24;9.90;99.90
19389;DHT22;9830;41.876;23.474;2022-11-06T16:32:04;9.70;99.90
19389;DHT22;9830;41.876;23.474;2022-11-06T16:37:04;9.50;99.90
19389;DHT22;9830;41.876;23.474;2022-11-06T16:42:30;9.40;99.90
19389;DHT22;9830;41.876;23.474;2022-11-06T16:45:18;9.30;99.90
19389;DHT22;9830;41.876;23.474;2022-11-06T16:48:27;9.20;99.90
19389;DHT22;9830;41.876;23.474;2022-11-06T16:51:04;9.10;99.90
19389;DHT22;9830;41.876;23.474;2022-11-06T16:53:42;9.10;99.90
19389;DHT22;9830;41.876;23.474;2022-11-06T16:56:11;9.10;99.90
19389;DHT22;9830;41.876;23.474;2022-11-06T16:58:49;9.00;99.90
19389;DHT22;9830;41.876;23.474;2022-11-06T17:01:17;9.00;99.90
19389;DHT22;9830;41.876;23.474;2022-11-06T17:03:50;9.00;99.90
19389;DHT22;9830;41.876;23.474;2022-11-06T17:06:23;9.00;99.90
19389;DHT22;9830;41.876;23.474;2022-11-06T17:09:05;8.90;99.90
19389;DHT22;9830;41.876;23.474;2022-11-06T17:11:31;8.90;99.90
19389;DHT22;9830;41.876;23.474;2022-11-06T17:13:57;8.90;99.90
19389;DHT22;9830;41.876;23.474;2022-11-06T17:16:25;8.90;99.90
19389;DHT22;9830;41.876;23.474;2022-11-06T17:18:52;8.90;99.90
19389;DHT22;9830;41.876;23.474;2022-11-06T17:21:23;8.80;99.90
19389;DHT22;9830;41.876;23.474;2022-11-06T17:23:50;8.80;99.90
19389;DHT22;9830;41.876;23.474;2022-11-06T17:26:28;8.80;99.90
19389;DHT22;9830;41.876;23.474;2022-11-06T17:28:56;8.80;99.90
19389;DHT22;9830;41.876;23.474;2022-11-06T17:31:23;8.80;99.90
19389;DHT22;9830;41.876;23.474;2022-11-06T17:33:50;8.80;99.90
19389;DHT22;9830;41.876;23.474;2022-11-06T17:38:41;8.70;99.90
19389;DHT22;9830;41.876;23.474;2022-11-06T17:41:07;8.70;99.90
19389;DHT22;9830;41.876;23.474;2022-11-06T17:43:32;8.60;99.90
19389;DHT22;9830;41.876;23.474;2022-11-06T17:45:59;8.70;99.90
19389;DHT22;9830;41.876;23.474;2022-11-06T17:48:25;8.70;99.90
19389;DHT22;9830;41.876;23.474;2022-11-06T17:50:53;8.60;99.90
19389;DHT22;9830;41.876;23.474;2022-11-06T17:53:37;8.60;99.90
19389;DHT22;9830;41.876;23.474;2022-11-06T17:56:04;8.60;99.90
19389;DHT22;9830;41.876;23.474;2022-11-06T17:58:30;8.70;99.90
19389;DHT22;9830;41.876;23.474;2022-11-06T18:01:04;8.60;99.90
19389;DHT22;9830;41.876;23.474;2022-11-06T18:03:30;8.70;99.90
19389;DHT22;9830;41.876;23.474;2022-11-06T18:05:56;8.70;99.90
19389;DHT22;9830;41.876;23.474;2022-11-06T18:08:22;8.80;99.90
19389;DHT22;9830;41.876;23.474;2022-11-06T18:10:54;8.80;99.90
19389;DHT22;9830;41.876;23.474;2022-11-06T18:13:21;8.80;99.90